Wisdom, Missouri
Current Conditions -  °F | °C
As of 7:35 AM on Sunday 21 Dec 2014 (Local Time) from KGLY Reporting Station
Haze Haze  
Wind Chill: 36°   Ceiling: 2300
Heat Index: 41°   Visibility: 2.5mi
Dew Point: 39°   Wind: 7mph
Humidity: 93%   Direction: 150°SSE
Pressure: 30.1"   Gusts: NA
Location:  38.3166°N, 93.2711°W
Report Text: KGLY 211335Z AUTO 15006KT 2 1/2SM BR SCT017 BKN023 OVC030 05/04 A3010 RMK AO2
Loading
Personal Weather Stations






























Interactive Weather Map New forecast layout! Learn more

10-Day Weather Forecast

Advertisements
Track Severe Weather on mobile